sensor_id;sensor_type;location;lat;lon;timestamp;P1;durP1;ratioP1;P2;durP2;ratioP2
3359;SDS011;1693;49.602;11.046;2023-03-01T00:00:05;14.40;;;11.03;;
3359;SDS011;1693;49.602;11.046;2023-03-01T00:02:33;20.90;;;14.30;;
3359;SDS011;1693;49.602;11.046;2023-03-01T00:05:00;15.83;;;13.23;;
3359;SDS011;1693;49.602;11.046;2023-03-01T00:07:29;15.97;;;12.93;;
3359;SDS011;1693;49.602;11.046;2023-03-01T00:09:56;17.10;;;12.67;;
3359;SDS011;1693;49.602;11.046;2023-03-01T00:12:23;19.87;;;13.63;;
3359;SDS011;1693;49.602;11.046;2023-03-01T00:14:50;16.97;;;13.27;;
3359;SDS011;1693;49.602;11.046;2023-03-01T00:17:17;18.87;;;13.00;;
3359;SDS011;1693;49.602;11.046;2023-03-01T00:19:44;21.60;;;13.30;;
3359;SDS011;1693;49.602;11.046;2023-03-01T00:22:11;15.30;;;12.13;;
3359;SDS011;1693;49.602;11.046;2023-03-01T00:24:39;17.40;;;12.40;;
3359;SDS011;1693;49.602;11.046;2023-03-01T00:27:06;18.27;;;13.00;;
3359;SDS011;1693;49.602;11.046;2023-03-01T00:29:33;19.40;;;14.23;;
3359;SDS011;1693;49.602;11.046;2023-03-01T00:32:00;16.40;;;11.60;;
3359;SDS011;1693;49.602;11.046;2023-03-01T00:34:28;17.23;;;12.93;;
3359;SDS011;1693;49.602;11.046;2023-03-01T00:36:55;15.00;;;12.40;;
3359;SDS011;1693;49.602;11.046;2023-03-01T00:39:30;17.33;;;12.80;;
3359;SDS011;1693;49.602;11.046;2023-03-01T00:41:59;19.10;;;13.63;;
3359;SDS011;1693;49.602;11.046;2023-03-01T00:44:26;18.87;;;13.50;;
3359;SDS011;1693;49.602;11.046;2023-03-01T00:46:53;23.30;;;12.53;;
3359;SDS011;1693;49.602;11.046;2023-03-01T00:49:21;17.77;;;13.13;;
3359;SDS011;1693;49.602;11.046;2023-03-01T00:51:49;22.20;;;14.87;;
3359;SDS011;1693;49.602;11.046;2023-03-01T00:54:16;21.40;;;13.80;;
3359;SDS011;1693;49.602;11.046;2023-03-01T00:56:43;19.17;;;13.37;;
3359;SDS011;1693;49.602;11.046;2023-03-01T00:59:11;17.50;;;12.07;;
3359;SDS011;1693;49.602;11.046;2023-03-01T01:01:38;18.40;;;13.10;;
3359;SDS011;1693;49.602;11.046;2023-03-01T01:04:07;21.97;;;13.20;;
3359;SDS011;1693;49.602;11.046;2023-03-01T01:06:36;16.13;;;12.03;;
3359;SDS011;1693;49.602;11.046;2023-03-01T01:09:05;21.70;;;13.70;;
3359;SDS011;1693;49.602;11.046;2023-03-01T01:11:33;20.50;;;13.23;;
3359;SDS011;1693;49.602;11.046;2023-03-01T01:14:01;17.20;;;12.83;;
3359;SDS011;1693;49.602;11.046;2023-03-01T01:16:30;17.60;;;14.00;;
3359;SDS011;1693;49.602;11.046;2023-03-01T01:18:58;25.63;;;15.30;;
3359;SDS011;1693;49.602;11.046;2023-03-01T01:21:25;18.30;;;13.60;;
3359;SDS011;1693;49.602;11.046;2023-03-01T01:23:54;17.17;;;12.10;;
3359;SDS011;1693;49.602;11.046;2023-03-01T01:26:22;23.77;;;13.50;;
3359;SDS011;1693;49.602;11.046;2023-03-01T01:28:53;18.90;;;11.83;;
3359;SDS011;1693;49.602;11.046;2023-03-01T01:31:22;18.50;;;12.90;;
3359;SDS011;1693;49.602;11.046;2023-03-01T01:33:53;24.03;;;13.03;;
3359;SDS011;1693;49.602;11.046;2023-03-01T01:36:22;14.83;;;12.10;;
3359;SDS011;1693;49.602;11.046;2023-03-01T01:38:50;22.17;;;15.13;;
3359;SDS011;1693;49.602;11.046;2023-03-01T01:41:19;19.30;;;13.20;;
3359;SDS011;1693;49.602;11.046;2023-03-01T01:43:48;18.50;;;13.40;;
3359;SDS011;1693;49.602;11.046;2023-03-01T01:46:37;19.57;;;14.10;;
3359;SDS011;1693;49.602;11.046;2023-03-01T01:49:09;22.43;;;14.33;;
3359;SDS011;1693;49.602;11.046;2023-03-01T01:51:45;22.87;;;15.27;;
3359;SDS011;1693;49.602;11.046;2023-03-01T01:54:17;22.20;;;14.80;;
3359;SDS011;1693;49.602;11.046;2023-03-01T01:56:49;23.47;;;15.37;;
3359;SDS011;1693;49.602;11.046;2023-03-01T01:59:21;21.00;;;14.50;;
3359;SDS011;1693;49.602;11.046;2023-03-01T02:01:54;20.23;;;13.63;;
3359;SDS011;1693;49.602;11.046;2023-03-01T02:04:24;17.13;;;13.20;;
3359;SDS011;1693;49.602;11.046;2023-03-01T02:06:54;19.27;;;14.27;;
3359;SDS011;1693;49.602;11.046;2023-03-01T02:09:25;17.83;;;13.50;;
3359;SDS011;1693;49.602;11.046;2023-03-01T02:11:54;19.40;;;13.70;;
3359;SDS011;1693;49.602;11.046;2023-03-01T02:14:22;18.10;;;12.87;;
3359;SDS011;1693;49.602;11.046;2023-03-01T02:16:50;18.63;;;12.47;;
3359;SDS011;1693;49.602;11.046;2023-03-01T02:19:20;23.67;;;15.97;;
3359;SDS011;1693;49.602;11.046;2023-03-01T02:21:58;27.37;;;13.27;;
3359;SDS011;1693;49.602;11.046;2023-03-01T02:24:36;21.40;;;13.30;;
3359;SDS011;1693;49.602;11.046;2023-03-01T02:27:11;18.53;;;15.27;;
3359;SDS011;1693;49.602;11.046;2023-03-01T02:29:40;18.27;;;12.00;;
3359;SDS011;1693;49.602;11.046;2023-03-01T02:32:09;15.50;;;11.17;;
3359;SDS011;1693;49.602;11.046;2023-03-01T02:34:38;25.23;;;13.80;;
3359;SDS011;1693;49.602;11.046;2023-03-01T02:37:08;15.93;;;12.77;;
3359;SDS011;1693;49.602;11.046;2023-03-01T02:39:40;19.70;;;12.57;;
3359;SDS011;1693;49.602;11.046;2023-03-01T02:42:14;16.47;;;12.23;;
3359;SDS011;1693;49.602;11.046;2023-03-01T02:44:46;18.37;;;13.10;;
3359;SDS011;1693;49.602;11.046;2023-03-01T02:47:16;19.50;;;13.50;;
3359;SDS011;1693;49.602;11.046;2023-03-01T02:49:44;18.20;;;13.00;;
3359;SDS011;1693;49.602;11.046;2023-03-01T02:52:19;17.40;;;12.20;;
3359;SDS011;1693;49.602;11.046;2023-03-01T02:55:05;19.27;;;14.07;;
3359;SDS011;1693;49.602;11.046;2023-03-01T02:57:36;16.73;;;12.27;;
3359;SDS011;1693;49.602;11.046;2023-03-01T03:00:12;18.00;;;13.20;;
3359;SDS011;1693;49.602;11.046;2023-03-01T03:02:45;18.07;;;12.50;;
3359;SDS011;1693;49.602;11.046;2023-03-01T03:05:15;19.47;;;13.40;;
3359;SDS011;1693;49.602;11.046;2023-03-01T03:07:45;21.83;;;15.57;;
3359;SDS011;1693;49.602;11.046;2023-03-01T03:10:16;17.90;;;13.77;;
3359;SDS011;1693;49.602;11.046;2023-03-01T03:12:48;19.27;;;13.00;;
3359;SDS011;1693;49.602;11.046;2023-03-01T03:15:19;18.80;;;14.70;;
3359;SDS011;1693;49.602;11.046;2023-03-01T03:17:49;20.10;;;15.20;;
3359;SDS011;1693;49.602;11.046;2023-03-01T03:20:18;25.20;;;14.33;;
3359;SDS011;1693;49.602;11.046;2023-03-01T03:22:48;21.00;;;14.40;;
3359;SDS011;1693;49.602;11.046;2023-03-01T03:25:18;20.13;;;14.67;;
3359;SDS011;1693;49.602;11.046;2023-03-01T03:27:46;19.70;;;13.67;;
3359;SDS011;1693;49.602;11.046;2023-03-01T03:30:15;21.07;;;15.37;;
3359;SDS011;1693;49.602;11.046;2023-03-01T03:32:48;20.00;;;15.30;;
3359;SDS011;1693;49.602;11.046;2023-03-01T03:35:20;25.27;;;14.63;;
3359;SDS011;1693;49.602;11.046;2023-03-01T03:37:50;19.20;;;14.30;;
3359;SDS011;1693;49.602;11.046;2023-03-01T03:40:35;19.33;;;13.03;;
3359;SDS011;1693;49.602;11.046;2023-03-01T03:43:03;25.27;;;14.73;;
3359;SDS011;1693;49.602;11.046;2023-03-01T03:45:33;19.73;;;13.90;;
3359;SDS011;1693;49.602;11.046;2023-03-01T03:48:03;23.23;;;13.90;;
3359;SDS011;1693;49.602;11.046;2023-03-01T03:50:33;19.87;;;13.60;;
3359;SDS011;1693;49.602;11.046;2023-03-01T03:53:02;20.03;;;13.90;;
3359;SDS011;1693;49.602;11.046;2023-03-01T03:55:30;17.43;;;12.83;;
3359;SDS011;1693;49.602;11.046;2023-03-01T03:57:59;22.50;;;14.30;;
3359;SDS011;1693;49.602;11.046;2023-03-01T04:00:36;24.60;;;14.77;;
3359;SDS011;1693;49.602;11.046;2023-03-01T04:03:10;20.17;;;14.90;;
3359;SDS011;1693;49.602;11.046;2023-03-01T04:05:40;19.90;;;13.63;;
3359;SDS011;1693;49.602;11.046;2023-03-01T04:08:11;20.80;;;13.33;;
3359;SDS011;1693;49.602;11.046;2023-03-01T04:10:39;17.27;;;13.10;;
3359;SDS011;1693;49.602;11.046;2023-03-01T04:13:10;21.30;;;15.07;;
3359;SDS011;1693;49.602;11.046;2023-03-01T04:15:43;19.20;;;14.47;;
3359;SDS011;1693;49.602;11.046;2023-03-01T04:18:11;23.10;;;14.60;;
3359;SDS011;1693;49.602;11.046;2023-03-01T04:20:41;18.33;;;13.43;;
3359;SDS011;1693;49.602;11.046;2023-03-01T04:23:11;20.40;;;14.23;;
3359;SDS011;1693;49.602;11.046;2023-03-01T04:25:42;22.47;;;14.80;;
3359;SDS011;1693;49.602;11.046;2023-03-01T04:28:18;22.17;;;16.03;;
3359;SDS011;1693;49.602;11.046;2023-03-01T04:30:50;21.37;;;15.90;;
3359;SDS011;1693;49.602;11.046;2023-03-01T04:33:20;20.57;;;13.10;;
3359;SDS011;1693;49.602;11.046;2023-03-01T04:35:49;22.23;;;13.83;;
3359;SDS011;1693;49.602;11.046;2023-03-01T04:38:16;20.70;;;14.20;;
3359;SDS011;1693;49.602;11.046;2023-03-01T04:40:45;22.70;;;15.00;;
3359;SDS011;1693;49.602;11.046;2023-03-01T04:43:13;21.00;;;14.23;;
3359;SDS011;1693;49.602;11.046;2023-03-01T04:45:42;24.73;;;13.70;;
3359;SDS011;1693;49.602;11.046;2023-03-01T04:48:10;20.47;;;13.90;;
3359;SDS011;1693;49.602;11.046;2023-03-01T04:50:37;20.33;;;13.93;;
3359;SDS011;1693;49.602;11.046;2023-03-01T04:53:04;16.23;;;13.10;;
3359;SDS011;1693;49.602;11.046;2023-03-01T04:55:33;20.00;;;14.40;;
3359;SDS011;1693;49.602;11.046;2023-03-01T04:58:01;21.33;;;14.70;;
3359;SDS011;1693;49.602;11.046;2023-03-01T05:00:29;23.17;;;15.67;;
3359;SDS011;1693;49.602;11.046;2023-03-01T05:02:59;23.30;;;14.50;;
3359;SDS011;1693;49.602;11.046;2023-03-01T05:05:30;21.63;;;15.30;;
3359;SDS011;1693;49.602;11.046;2023-03-01T05:08:02;26.03;;;14.60;;
3359;SDS011;1693;49.602;11.046;2023-03-01T05:10:33;21.80;;;15.37;;
3359;SDS011;1693;49.602;11.046;2023-03-01T05:13:01;21.93;;;14.00;;
3359;SDS011;1693;49.602;11.046;2023-03-01T05:15:31;24.13;;;14.53;;
3359;SDS011;1693;49.602;11.046;2023-03-01T05:17:58;18.47;;;14.07;;
3359;SDS011;1693;49.602;11.046;2023-03-01T05:20:27;27.90;;;16.60;;
3359;SDS011;1693;49.602;11.046;2023-03-01T05:22:59;40.30;;;18.00;;
3359;SDS011;1693;49.602;11.046;2023-03-01T05:25:31;21.60;;;16.50;;
3359;SDS011;1693;49.602;11.046;2023-03-01T05:28:00;22.13;;;16.40;;
3359;SDS011;1693;49.602;11.046;2023-03-01T05:30:29;25.50;;;15.50;;
3359;SDS011;1693;49.602;11.046;2023-03-01T05:32:58;23.53;;;16.73;;
3359;SDS011;1693;49.602;11.046;2023-03-01T05:35:27;22.77;;;14.90;;
3359;SDS011;1693;49.602;11.046;2023-03-01T05:37:57;22.47;;;16.07;;
3359;SDS011;1693;49.602;11.046;2023-03-01T05:40:27;23.50;;;16.93;;
3359;SDS011;1693;49.602;11.046;2023-03-01T05:42:54;23.13;;;16.60;;
3359;SDS011;1693;49.602;11.046;2023-03-01T05:45:25;19.50;;;14.00;;
3359;SDS011;1693;49.602;11.046;2023-03-01T05:47:54;25.83;;;16.53;;
3359;SDS011;1693;49.602;11.046;2023-03-01T05:50:23;22.23;;;15.27;;
3359;SDS011;1693;49.602;11.046;2023-03-01T05:52:58;22.00;;;15.97;;
3359;SDS011;1693;49.602;11.046;2023-03-01T05:55:26;24.90;;;15.70;;
3359;SDS011;1693;49.602;11.046;2023-03-01T05:57:55;26.97;;;16.33;;
3359;SDS011;1693;49.602;11.046;2023-03-01T06:00:25;20.17;;;14.57;;
3359;SDS011;1693;49.602;11.046;2023-03-01T06:02:55;25.27;;;17.57;;
3359;SDS011;1693;49.602;11.046;2023-03-01T06:05:25;24.50;;;15.07;;
3359;SDS011;1693;49.602;11.046;2023-03-01T06:07:54;17.87;;;14.63;;
3359;SDS011;1693;49.602;11.046;2023-03-01T06:10:22;24.70;;;15.53;;
3359;SDS011;1693;49.602;11.046;2023-03-01T06:12:50;18.63;;;14.07;;
3359;SDS011;1693;49.602;11.046;2023-03-01T06:15:19;23.60;;;15.53;;
3359;SDS011;1693;49.602;11.046;2023-03-01T06:17:48;32.90;;;15.90;;
3359;SDS011;1693;49.602;11.046;2023-03-01T06:20:32;27.93;;;15.80;;
3359;SDS011;1693;49.602;11.046;2023-03-01T06:23:25;22.67;;;16.30;;
3359;SDS011;1693;49.602;11.046;2023-03-01T06:25:53;23.07;;;15.97;;
3359;SDS011;1693;49.602;11.046;2023-03-01T06:28:20;21.30;;;15.83;;
3359;SDS011;1693;49.602;11.046;2023-03-01T06:30:47;21.23;;;14.93;;
3359;SDS011;1693;49.602;11.046;2023-03-01T06:33:16;19.93;;;14.60;;
3359;SDS011;1693;49.602;11.046;2023-03-01T06:35:45;21.13;;;14.30;;
3359;SDS011;1693;49.602;11.046;2023-03-01T06:38:12;18.10;;;13.67;;
3359;SDS011;1693;49.602;11.046;2023-03-01T06:40:42;19.97;;;13.73;;
3359;SDS011;1693;49.602;11.046;2023-03-01T06:43:11;23.67;;;14.60;;
3359;SDS011;1693;49.602;11.046;2023-03-01T06:45:38;19.83;;;14.10;;
3359;SDS011;1693;49.602;11.046;2023-03-01T06:48:07;20.20;;;12.73;;
3359;SDS011;1693;49.602;11.046;2023-03-01T06:50:35;23.33;;;14.90;;
3359;SDS011;1693;49.602;11.046;2023-03-01T06:53:04;23.47;;;14.47;;
3359;SDS011;1693;49.602;11.046;2023-03-01T06:55:36;21.60;;;14.50;;
3359;SDS011;1693;49.602;11.046;2023-03-01T06:58:03;20.13;;;13.40;;
3359;SDS011;1693;49.602;11.046;2023-03-01T07:00:36;17.87;;;14.30;;
3359;SDS011;1693;49.602;11.046;2023-03-01T07:03:09;20.00;;;15.20;;
3359;SDS011;1693;49.602;11.046;2023-03-01T07:05:40;18.37;;;13.33;;
3359;SDS011;1693;49.602;11.046;2023-03-01T07:08:28;18.90;;;13.73;;
3359;SDS011;1693;49.602;11.046;2023-03-01T07:11:12;22.90;;;13.73;;
3359;SDS011;1693;49.602;11.046;2023-03-01T07:13:39;20.53;;;14.97;;
3359;SDS011;1693;49.602;11.046;2023-03-01T07:16:08;19.33;;;13.63;;
3359;SDS011;1693;49.602;11.046;2023-03-01T07:18:35;20.00;;;12.57;;
3359;SDS011;1693;49.602;11.046;2023-03-01T07:21:07;17.70;;;12.83;;
3359;SDS011;1693;49.602;11.046;2023-03-01T07:23:39;20.77;;;13.73;;
3359;SDS011;1693;49.602;11.046;2023-03-01T07:26:08;20.43;;;11.43;;
3359;SDS011;1693;49.602;11.046;2023-03-01T07:28:35;21.93;;;13.80;;
3359;SDS011;1693;49.602;11.046;2023-03-01T07:31:04;16.87;;;12.97;;
3359;SDS011;1693;49.602;11.046;2023-03-01T07:33:33;18.53;;;12.73;;
3359;SDS011;1693;49.602;11.046;2023-03-01T07:36:02;18.00;;;12.97;;
3359;SDS011;1693;49.602;11.046;2023-03-01T07:38:30;21.00;;;12.93;;
3359;SDS011;1693;49.602;11.046;2023-03-01T07:40:57;23.07;;;13.60;;
3359;SDS011;1693;49.602;11.046;2023-03-01T07:43:25;23.50;;;14.30;;
3359;SDS011;1693;49.602;11.046;2023-03-01T07:45:52;18.13;;;13.87;;
3359;SDS011;1693;49.602;11.046;2023-03-01T07:48:20;19.20;;;13.90;;
3359;SDS011;1693;49.602;11.046;2023-03-01T07:51:18;19.77;;;14.37;;
3359;SDS011;1693;49.602;11.046;2023-03-01T07:53:45;19.60;;;13.43;;
3359;SDS011;1693;49.602;11.046;2023-03-01T07:56:13;20.57;;;14.30;;
3359;SDS011;1693;49.602;11.046;2023-03-01T07:58:43;21.10;;;14.47;;
3359;SDS011;1693;49.602;11.046;2023-03-01T08:01:11;21.70;;;14.20;;
3359;SDS011;1693;49.602;11.046;2023-03-01T08:03:39;22.27;;;14.40;;
3359;SDS011;1693;49.602;11.046;2023-03-01T08:06:09;20.77;;;13.33;;
3359;SDS011;1693;49.602;11.046;2023-03-01T08:08:36;27.07;;;14.87;;
3359;SDS011;1693;49.602;11.046;2023-03-01T08:11:05;19.37;;;13.30;;
3359;SDS011;1693;49.602;11.046;2023-03-01T08:13:33;18.97;;;13.97;;
3359;SDS011;1693;49.602;11.046;2023-03-01T08:16:00;19.93;;;14.10;;
3359;SDS011;1693;49.602;11.046;2023-03-01T08:18:28;19.97;;;13.63;;
3359;SDS011;1693;49.602;11.046;2023-03-01T08:20:55;22.93;;;14.67;;
3359;SDS011;1693;49.602;11.046;2023-03-01T08:23:28;16.73;;;12.13;;
3359;SDS011;1693;49.602;11.046;2023-03-01T08:26:02;20.10;;;13.00;;
3359;SDS011;1693;49.602;11.046;2023-03-01T08:28:31;20.30;;;13.47;;
3359;SDS011;1693;49.602;11.046;2023-03-01T08:30:58;20.10;;;14.43;;
3359;SDS011;1693;49.602;11.046;2023-03-01T08:33:25;20.70;;;14.83;;
3359;SDS011;1693;49.602;11.046;2023-03-01T08:36:01;20.17;;;14.60;;
3359;SDS011;1693;49.602;11.046;2023-03-01T08:38:30;23.83;;;13.57;;
3359;SDS011;1693;49.602;11.046;2023-03-01T08:40:59;20.67;;;14.90;;
3359;SDS011;1693;49.602;11.046;2023-03-01T08:43:26;20.77;;;12.30;;
3359;SDS011;1693;49.602;11.046;2023-03-01T08:45:53;28.30;;;14.57;;
3359;SDS011;1693;49.602;11.046;2023-03-01T08:48:21;21.93;;;13.97;;
3359;SDS011;1693;49.602;11.046;2023-03-01T08:50:48;18.30;;;12.87;;
3359;SDS011;1693;49.602;11.046;2023-03-01T08:53:14;21.93;;;15.37;;
3359;SDS011;1693;49.602;11.046;2023-03-01T08:55:43;19.47;;;12.80;;
3359;SDS011;1693;49.602;11.046;2023-03-01T08:58:10;19.03;;;13.30;;
3359;SDS011;1693;49.602;11.046;2023-03-01T09:00:37;16.53;;;14.10;;
3359;SDS011;1693;49.602;11.046;2023-03-01T09:03:05;25.07;;;14.77;;
3359;SDS011;1693;49.602;11.046;2023-03-01T09:05:35;22.33;;;14.30;;
3359;SDS011;1693;49.602;11.046;2023-03-01T09:08:08;19.43;;;14.40;;
3359;SDS011;1693;49.602;11.046;2023-03-01T09:10:37;19.47;;;14.50;;
3359;SDS011;1693;49.602;11.046;2023-03-01T09:13:05;18.97;;;13.47;;
3359;SDS011;1693;49.602;11.046;2023-03-01T09:15:32;19.30;;;13.83;;
3359;SDS011;1693;49.602;11.046;2023-03-01T09:17:59;17.53;;;13.20;;
3359;SDS011;1693;49.602;11.046;2023-03-01T09:20:26;19.17;;;13.20;;
3359;SDS011;1693;49.602;11.046;2023-03-01T09:22:53;18.60;;;12.50;;
3359;SDS011;1693;49.602;11.046;2023-03-01T09:25:22;17.90;;;13.37;;
3359;SDS011;1693;49.602;11.046;2023-03-01T09:27:50;19.60;;;14.17;;
3359;SDS011;1693;49.602;11.046;2023-03-01T09:30:19;19.20;;;13.40;;
3359;SDS011;1693;49.602;11.046;2023-03-01T09:32:47;20.60;;;12.73;;
3359;SDS011;1693;49.602;11.046;2023-03-01T09:35:14;18.10;;;12.40;;
3359;SDS011;1693;49.602;11.046;2023-03-01T09:37:41;15.70;;;13.43;;
3359;SDS011;1693;49.602;11.046;2023-03-01T09:40:11;19.03;;;13.20;;
3359;SDS011;1693;49.602;11.046;2023-03-01T09:42:45;18.93;;;12.20;;
3359;SDS011;1693;49.602;11.046;2023-03-01T09:45:21;17.70;;;12.77;;
3359;SDS011;1693;49.602;11.046;2023-03-01T09:47:56;18.30;;;12.47;;
3359;SDS011;1693;49.602;11.046;2023-03-01T09:50:23;24.23;;;13.73;;
3359;SDS011;1693;49.602;11.046;2023-03-01T09:52:54;19.97;;;13.20;;
3359;SDS011;1693;49.602;11.046;2023-03-01T09:55:29;20.00;;;12.00;;
3359;SDS011;1693;49.602;11.046;2023-03-01T09:58:00;20.17;;;13.17;;
3359;SDS011;1693;49.602;11.046;2023-03-01T10:00:36;18.07;;;12.20;;
3359;SDS011;1693;49.602;11.046;2023-03-01T10:03:11;18.27;;;11.87;;
3359;SDS011;1693;49.602;11.046;2023-03-01T10:08:36;15.17;;;10.70;;
3359;SDS011;1693;49.602;11.046;2023-03-01T10:11:14;16.90;;;10.43;;
3359;SDS011;1693;49.602;11.046;2023-03-01T10:13:48;13.00;;;9.80;;
3359;SDS011;1693;49.602;11.046;2023-03-01T10:16:23;13.43;;;10.23;;
3359;SDS011;1693;49.602;11.046;2023-03-01T10:18:55;16.03;;;10.33;;
3359;SDS011;1693;49.602;11.046;2023-03-01T10:21:26;13.00;;;10.70;;
3359;SDS011;1693;49.602;11.046;2023-03-01T10:23:54;13.33;;;10.43;;
3359;SDS011;1693;49.602;11.046;2023-03-01T10:26:34;12.63;;;9.67;;
3359;SDS011;1693;49.602;11.046;2023-03-01T10:29:13;15.60;;;11.80;;
3359;SDS011;1693;49.602;11.046;2023-03-01T10:31:42;14.07;;;9.57;;
3359;SDS011;1693;49.602;11.046;2023-03-01T10:34:13;14.70;;;11.33;;
3359;SDS011;1693;49.602;11.046;2023-03-01T10:36:47;13.53;;;10.50;;
3359;SDS011;1693;49.602;11.046;2023-03-01T10:39:20;19.97;;;11.17;;
3359;SDS011;1693;49.602;11.046;2023-03-01T10:41:53;16.03;;;10.70;;
3359;SDS011;1693;49.602;11.046;2023-03-01T10:44:37;15.10;;;10.80;;
3359;SDS011;1693;49.602;11.046;2023-03-01T10:47:17;16.93;;;10.70;;
3359;SDS011;1693;49.602;11.046;2023-03-01T10:49:54;14.00;;;9.80;;
3359;SDS011;1693;49.602;11.046;2023-03-01T10:52:23;13.23;;;9.30;;
3359;SDS011;1693;49.602;11.046;2023-03-01T10:54:54;16.30;;;10.10;;
3359;SDS011;1693;49.602;11.046;2023-03-01T10:57:37;12.43;;;8.90;;
3359;SDS011;1693;49.602;11.046;2023-03-01T11:00:24;13.07;;;9.50;;
3359;SDS011;1693;49.602;11.046;2023-03-01T11:05:50;14.60;;;10.30;;
3359;SDS011;1693;49.602;11.046;2023-03-01T11:08:30;16.17;;;10.23;;
3359;SDS011;1693;49.602;11.046;2023-03-01T11:13:52;16.87;;;10.97;;
3359;SDS011;1693;49.602;11.046;2023-03-01T11:16:26;16.37;;;10.07;;
3359;SDS011;1693;49.602;11.046;2023-03-01T11:18:59;14.97;;;9.77;;
3359;SDS011;1693;49.602;11.046;2023-03-01T11:21:30;12.20;;;9.30;;
3359;SDS011;1693;49.602;11.046;2023-03-01T11:24:00;14.73;;;10.33;;
3359;SDS011;1693;49.602;11.046;2023-03-01T11:26:30;18.23;;;10.33;;
3359;SDS011;1693;49.602;11.046;2023-03-01T11:29:06;14.03;;;9.83;;
3359;SDS011;1693;49.602;11.046;2023-03-01T11:31:41;15.73;;;10.10;;
3359;SDS011;1693;49.602;11.046;2023-03-01T11:34:12;13.67;;;10.40;;
3359;SDS011;1693;49.602;11.046;2023-03-01T11:36:44;11.93;;;9.77;;
3359;SDS011;1693;49.602;11.046;2023-03-01T11:39:22;12.07;;;9.87;;
3359;SDS011;1693;49.602;11.046;2023-03-01T11:42:06;14.33;;;9.60;;
3359;SDS011;1693;49.602;11.046;2023-03-01T11:44:40;10.90;;;8.20;;
3359;SDS011;1693;49.602;11.046;2023-03-01T11:47:27;14.83;;;9.83;;
3359;SDS011;1693;49.602;11.046;2023-03-01T11:50:17;14.87;;;9.70;;
3359;SDS011;1693;49.602;11.046;2023-03-01T11:52:57;14.80;;;10.53;;
3359;SDS011;1693;49.602;11.046;2023-03-01T11:55:44;11.50;;;7.97;;
3359;SDS011;1693;49.602;11.046;2023-03-01T11:58:27;14.23;;;10.50;;
3359;SDS011;1693;49.602;11.046;2023-03-01T12:01:20;10.53;;;8.67;;
3359;SDS011;1693;49.602;11.046;2023-03-01T12:04:01;15.97;;;10.57;;
3359;SDS011;1693;49.602;11.046;2023-03-01T12:06:41;12.33;;;8.53;;
3359;SDS011;1693;49.602;11.046;2023-03-01T12:09:29;11.60;;;8.80;;
3359;SDS011;1693;49.602;11.046;2023-03-01T12:12:12;12.07;;;9.33;;
3359;SDS011;1693;49.602;11.046;2023-03-01T12:15:17;11.40;;;9.10;;
3359;SDS011;1693;49.602;11.046;2023-03-01T12:18:00;14.33;;;8.60;;
3359;SDS011;1693;49.602;11.046;2023-03-01T12:20:58;14.03;;;9.00;;
3359;SDS011;1693;49.602;11.046;2023-03-01T12:23:40;18.60;;;9.10;;
3359;SDS011;1693;49.602;11.046;2023-03-01T12:26:26;16.60;;;9.73;;
3359;SDS011;1693;49.602;11.046;2023-03-01T12:32:00;18.30;;;9.47;;
3359;SDS011;1693;49.602;11.046;2023-03-01T12:34:45;16.37;;;11.13;;
3359;SDS011;1693;49.602;11.046;2023-03-01T12:37:41;13.77;;;9.70;;
3359;SDS011;1693;49.602;11.046;2023-03-01T12:40:31;14.37;;;10.40;;
3359;SDS011;1693;49.602;11.046;2023-03-01T12:43:08;11.60;;;9.47;;
3359;SDS011;1693;49.602;11.046;2023-03-01T12:45:47;14.40;;;10.30;;
3359;SDS011;1693;49.602;11.046;2023-03-01T12:48:30;10.00;;;8.30;;
3359;SDS011;1693;49.602;11.046;2023-03-01T12:51:04;19.70;;;8.83;;
3359;SDS011;1693;49.602;11.046;2023-03-01T12:53:36;13.43;;;8.50;;
3359;SDS011;1693;49.602;11.046;2023-03-01T12:56:08;11.77;;;8.60;;
3359;SDS011;1693;49.602;11.046;2023-03-01T12:58:39;11.80;;;9.20;;
3359;SDS011;1693;49.602;11.046;2023-03-01T13:01:15;12.70;;;8.90;;
3359;SDS011;1693;49.602;11.046;2023-03-01T13:03:55;12.17;;;8.10;;
3359;SDS011;1693;49.602;11.046;2023-03-01T13:06:49;14.43;;;9.67;;
3359;SDS011;1693;49.602;11.046;2023-03-01T13:09:29;9.60;;;8.40;;
3359;SDS011;1693;49.602;11.046;2023-03-01T13:12:03;13.63;;;8.20;;
3359;SDS011;1693;49.602;11.046;2023-03-01T13:14:45;10.63;;;8.53;;
3359;SDS011;1693;49.602;11.046;2023-03-01T13:20:15;11.87;;;7.33;;
3359;SDS011;1693;49.602;11.046;2023-03-01T13:22:44;17.10;;;10.30;;
3359;SDS011;1693;49.602;11.046;2023-03-01T13:25:14;16.53;;;8.90;;
3359;SDS011;1693;49.602;11.046;2023-03-01T13:27:44;10.67;;;8.70;;
3359;SDS011;1693;49.602;11.046;2023-03-01T13:33:33;12.63;;;8.20;;
3359;SDS011;1693;49.602;11.046;2023-03-01T13:36:10;15.53;;;11.10;;
3359;SDS011;1693;49.602;11.046;2023-03-01T13:38:45;11.53;;;9.67;;
3359;SDS011;1693;49.602;11.046;2023-03-01T13:41:13;11.70;;;8.80;;
3359;SDS011;1693;49.602;11.046;2023-03-01T13:43:43;13.90;;;9.27;;
3359;SDS011;1693;49.602;11.046;2023-03-01T13:46:15;10.63;;;9.23;;
3359;SDS011;1693;49.602;11.046;2023-03-01T13:48:47;12.63;;;9.50;;
3359;SDS011;1693;49.602;11.046;2023-03-01T13:51:20;12.20;;;9.37;;
3359;SDS011;1693;49.602;11.046;2023-03-01T13:53:50;12.70;;;9.23;;
3359;SDS011;1693;49.602;11.046;2023-03-01T13:56:21;14.23;;;8.73;;
3359;SDS011;1693;49.602;11.046;2023-03-01T13:58:53;12.90;;;9.60;;
3359;SDS011;1693;49.602;11.046;2023-03-01T14:01:27;11.37;;;8.60;;
3359;SDS011;1693;49.602;11.046;2023-03-01T14:03:55;12.63;;;9.00;;
3359;SDS011;1693;49.602;11.046;2023-03-01T14:06:24;10.90;;;8.67;;
3359;SDS011;1693;49.602;11.046;2023-03-01T14:09:00;10.77;;;9.67;;
3359;SDS011;1693;49.602;11.046;2023-03-01T14:11:35;15.50;;;9.63;;
3359;SDS011;1693;49.602;11.046;2023-03-01T14:14:31;9.93;;;8.63;;
3359;SDS011;1693;49.602;11.046;2023-03-01T14:17:12;11.10;;;9.03;;
3359;SDS011;1693;49.602;11.046;2023-03-01T14:19:54;13.63;;;9.10;;
3359;SDS011;1693;49.602;11.046;2023-03-01T14:22:23;10.97;;;7.63;;
3359;SDS011;1693;49.602;11.046;2023-03-01T14:24:54;15.53;;;9.63;;
3359;SDS011;1693;49.602;11.046;2023-03-01T14:27:23;13.03;;;8.33;;
3359;SDS011;1693;49.602;11.046;2023-03-01T14:29:57;15.80;;;9.70;;
3359;SDS011;1693;49.602;11.046;2023-03-01T14:32:26;14.90;;;8.33;;
3359;SDS011;1693;49.602;11.046;2023-03-01T14:34:54;14.00;;;9.50;;
3359;SDS011;1693;49.602;11.046;2023-03-01T14:37:24;14.03;;;9.70;;
3359;SDS011;1693;49.602;11.046;2023-03-01T14:39:54;13.90;;;10.03;;
3359;SDS011;1693;49.602;11.046;2023-03-01T14:42:23;12.40;;;8.97;;
3359;SDS011;1693;49.602;11.046;2023-03-01T14:44:54;10.33;;;7.80;;
3359;SDS011;1693;49.602;11.046;2023-03-01T14:47:26;9.37;;;7.43;;
3359;SDS011;1693;49.602;11.046;2023-03-01T14:49:57;10.80;;;7.53;;
3359;SDS011;1693;49.602;11.046;2023-03-01T14:52:30;9.30;;;7.17;;
3359;SDS011;1693;49.602;11.046;2023-03-01T14:55:01;11.10;;;7.63;;
3359;SDS011;1693;49.602;11.046;2023-03-01T14:57:30;10.70;;;8.47;;
3359;SDS011;1693;49.602;11.046;2023-03-01T14:59:59;14.07;;;10.00;;
3359;SDS011;1693;49.602;11.046;2023-03-01T15:02:30;11.73;;;8.17;;
3359;SDS011;1693;49.602;11.046;2023-03-01T15:04:58;10.53;;;7.03;;
3359;SDS011;1693;49.602;11.046;2023-03-01T15:07:29;11.50;;;8.70;;
3359;SDS011;1693;49.602;11.046;2023-03-01T15:10:00;14.37;;;8.33;;
3359;SDS011;1693;49.602;11.046;2023-03-01T15:12:35;9.77;;;7.77;;
3359;SDS011;1693;49.602;11.046;2023-03-01T15:18:01;10.43;;;7.50;;
3359;SDS011;1693;49.602;11.046;2023-03-01T15:20:31;13.00;;;8.17;;
3359;SDS011;1693;49.602;11.046;2023-03-01T15:23:01;11.27;;;7.57;;
3359;SDS011;1693;49.602;11.046;2023-03-01T15:25:29;11.10;;;8.10;;